Current Weather

Logansport/Cass County

Logansport, Indiana (KGGP)

Report from: Monday, June 24, 2024 4:55 PM EDT
Current time: Tuesday, June 25, 2024 4:44 AM EDT

Nearby weather – Weather history – Daily summaries
Weather forecast

Temperature28.0°C (82.4°F)
Heat index28.6°C (83.5°F)
Dew point16.0°C (60.8°F)
Winds 5 kts (2.6 m/s, 5.8 mph) West-Southwest (250°)
Visibility10 mi. (16.1 km)
Clouds Sky clear
Altimeter29.98 in.Hg (1015 mB)
Relative humidity48 %
Density altitude1,680 ft. (512 m)
Remarks Fully automated report
Automated weather observing station with precipitation discriminator
Flight conditions Visual Meteorological Conditions
Raw dataKGGP 242055Z AUTO 25005KT 10SM CLR 28/16 A2998 RMK AO2
An unhandled exception has occurred. See browser dev tools for details. Reload 🗙